createdAt,value
2019-05-05T00:01:14.732Z,3.02
2019-05-05T00:04:04.551Z,3.37
2019-05-05T00:06:34.395Z,3.30
2019-05-05T00:09:05.480Z,3.62
2019-05-05T00:11:45.897Z,3.62
2019-05-05T00:14:24.590Z,3.98
2019-05-05T00:17:00.680Z,4.25
2019-05-05T00:19:33.247Z,4.00
2019-05-05T00:22:01.611Z,4.23
2019-05-05T00:24:31.316Z,3.80
2019-05-05T00:27:01.054Z,3.58
2019-05-05T00:29:30.667Z,4.00
2019-05-05T00:32:01.325Z,3.83
2019-05-05T00:34:31.106Z,4.40
2019-05-05T00:37:00.820Z,4.20
2019-05-05T00:39:30.527Z,3.55
2019-05-05T00:42:00.137Z,4.50
2019-05-05T00:44:29.814Z,4.00
2019-05-05T00:47:05.290Z,3.50
2019-05-05T00:49:46.436Z,4.20
2019-05-05T00:52:10.736Z,4.35
2019-05-05T00:54:40.358Z,4.55
2019-05-05T00:57:10.993Z,4.22
2019-05-05T00:59:40.701Z,3.80
2019-05-05T01:02:25.640Z,4.30
2019-05-05T01:05:04.412Z,4.15
2019-05-05T01:07:35.094Z,4.35
2019-05-05T01:10:06.547Z,4.17
2019-05-05T01:12:36.185Z,3.98
2019-05-05T01:15:05.892Z,3.83
2019-05-05T01:17:35.602Z,4.80
2019-05-05T01:20:06.996Z,4.45
2019-05-05T01:22:36.866Z,3.45
2019-05-05T01:25:08.721Z,3.92
2019-05-05T01:27:38.407Z,4.25
2019-05-05T01:30:16.208Z,4.80
2019-05-05T01:32:53.219Z,4.83
2019-05-05T01:35:24.824Z,4.58
2019-05-05T01:37:55.710Z,3.57
2019-05-05T01:40:45.050Z,4.63
2019-05-05T01:43:14.792Z,3.92
2019-05-05T01:45:45.310Z,5.08
2019-05-05T01:48:15.236Z,4.37
2019-05-05T01:50:45.290Z,4.92
2019-05-05T01:53:15.334Z,4.95
2019-05-05T01:55:45.244Z,4.97
2019-05-05T01:58:15.341Z,5.20
2019-05-05T02:00:45.314Z,4.90
2019-05-05T02:03:15.103Z,4.53
2019-05-05T02:05:45.267Z,5.37
2019-05-05T02:08:15.399Z,5.25
2019-05-05T02:10:47.278Z,5.17
2019-05-05T02:13:18.026Z,4.10
2019-05-05T02:15:47.750Z,4.62
2019-05-05T02:18:17.387Z,4.92
2019-05-05T02:20:54.355Z,4.97
2019-05-05T02:23:26.034Z,5.15
2019-05-05T02:25:55.498Z,5.03
2019-05-05T02:28:26.775Z,4.83
2019-05-05T02:30:57.994Z,5.23
2019-05-05T02:33:28.738Z,5.23
2019-05-05T02:35:58.363Z,5.28
2019-05-05T02:38:28.073Z,5.87
2019-05-05T02:40:59.580Z,4.80
2019-05-05T02:43:30.642Z,5.53
2019-05-05T02:46:05.911Z,6.05
2019-05-05T02:48:35.730Z,5.60
2019-05-05T02:51:06.820Z,5.33
2019-05-05T02:53:41.072Z,5.17
2019-05-05T02:56:14.434Z,5.42
2019-05-05T02:58:44.408Z,4.67
2019-05-05T03:01:34.050Z,6.08
2019-05-05T03:04:05.287Z,5.20
2019-05-05T03:06:35.435Z,5.15
2019-05-05T03:09:07.592Z,4.85
2019-05-05T03:14:06.716Z,4.70
2019-05-05T03:16:37.215Z,5.65
2019-05-05T03:19:08.146Z,4.42
2019-05-05T03:21:39.889Z,5.40
2019-05-05T03:24:09.316Z,4.70
2019-05-05T03:26:39.124Z,5.20
2019-05-05T03:29:10.402Z,4.53
2019-05-05T03:31:40.085Z,4.90
2019-05-05T03:34:09.826Z,5.20
2019-05-05T03:36:39.503Z,5.20
2019-05-05T03:39:10.779Z,4.60
2019-05-05T03:41:50.494Z,5.27
2019-05-05T03:44:24.719Z,5.10
2019-05-05T03:46:54.554Z,5.00
2019-05-05T03:49:24.444Z,4.60
2019-05-05T03:51:54.418Z,4.70
2019-05-05T03:54:24.195Z,5.45
2019-05-05T03:57:09.957Z,4.92
2019-05-05T03:59:41.199Z,5.37
2019-05-05T04:02:27.530Z,5.33
2019-05-05T04:05:04.070Z,5.03
2019-05-05T04:07:33.721Z,5.10
2019-05-05T04:10:04.046Z,4.67
2019-05-05T04:12:34.560Z,5.00
2019-05-05T04:15:05.715Z,4.45
2019-05-05T04:17:41.437Z,5.50
2019-05-05T04:20:18.554Z,5.05
2019-05-05T04:22:48.235Z,4.58
2019-05-05T04:25:17.872Z,4.87
2019-05-05T04:27:47.584Z,4.90
2019-05-05T04:30:17.159Z,4.78
2019-05-05T04:32:48.628Z,4.75
2019-05-05T04:35:19.322Z,5.47
2019-05-05T04:37:49.054Z,5.25
2019-05-05T04:40:18.797Z,5.50
2019-05-05T04:42:48.504Z,5.05
2019-05-05T04:45:18.112Z,6.10
2019-05-05T04:47:49.364Z,5.05
2019-05-05T04:50:23.869Z,5.47
2019-05-05T04:52:55.205Z,5.92
2019-05-05T04:55:24.838Z,5.33
2019-05-05T04:57:54.649Z,6.03
2019-05-05T05:00:26.284Z,6.12
2019-05-05T05:02:59.906Z,5.25
2019-05-05T05:05:31.152Z,5.97
2019-05-05T05:08:00.761Z,5.53
2019-05-05T05:10:30.473Z,6.53
2019-05-05T05:13:00.078Z,5.60
2019-05-05T05:15:29.759Z,6.00
2019-05-05T05:18:17.800Z,6.53
2019-05-05T05:20:49.381Z,5.62
2019-05-05T05:23:18.994Z,5.55
2019-05-05T05:25:48.674Z,5.58
2019-05-05T05:28:18.307Z,6.17
2019-05-05T05:30:48.016Z,6.15
2019-05-05T05:33:18.621Z,5.70
2019-05-05T05:35:48.360Z,6.45
2019-05-05T05:38:19.824Z,6.03
2019-05-05T05:40:54.133Z,7.00
2019-05-05T05:43:25.475Z,7.08
2019-05-05T05:46:04.407Z,7.10
2019-05-05T05:48:37.780Z,7.30
2019-05-05T05:51:11.503Z,7.40
2019-05-05T05:53:41.184Z,7.03
2019-05-05T05:56:10.820Z,8.13
2019-05-05T05:58:40.531Z,9.05
2019-05-05T06:01:10.241Z,8.83
2019-05-05T06:03:39.951Z,8.30
2019-05-05T06:06:09.562Z,8.23
2019-05-05T06:08:39.268Z,8.83
2019-05-05T06:11:08.848Z,7.78
2019-05-05T06:13:40.280Z,8.08
2019-05-05T06:16:09.938Z,8.30
2019-05-05T06:18:39.644Z,8.05
2019-05-05T06:21:09.356Z,7.22
2019-05-05T06:23:38.965Z,7.83
2019-05-05T06:26:09.608Z,7.12
2019-05-05T06:28:39.201Z,7.97
2019-05-05T06:31:08.883Z,8.73
2019-05-05T06:33:38.494Z,8.40
2019-05-05T06:36:08.230Z,8.40
2019-05-05T06:38:37.837Z,8.18
2019-05-05T06:41:09.084Z,8.10
2019-05-05T06:43:54.299Z,8.43
2019-05-05T06:46:25.709Z,8.05
2019-05-05T06:48:55.287Z,7.90
2019-05-05T06:51:25.024Z,7.28
2019-05-05T06:53:54.734Z,7.80
2019-05-05T06:56:24.342Z,8.30
2019-05-05T06:58:54.147Z,7.45
2019-05-05T07:01:24.775Z,7.92
2019-05-05T07:03:54.706Z,7.97
2019-05-05T07:06:24.385Z,8.38
2019-05-05T07:08:54.565Z,7.97
2019-05-05T07:11:24.469Z,8.48
2019-05-05T07:13:54.129Z,8.58
2019-05-05T07:16:24.348Z,9.38
2019-05-05T07:18:55.215Z,8.05
2019-05-05T07:21:26.462Z,8.20
2019-05-05T07:23:56.171Z,8.63
2019-05-05T07:26:25.780Z,8.48
2019-05-05T07:28:55.464Z,8.95
2019-05-05T07:31:26.931Z,8.38
2019-05-05T07:33:56.547Z,8.88
2019-05-05T07:36:37.013Z,8.23
2019-05-05T07:39:07.615Z,7.45
2019-05-05T07:41:40.337Z,7.65
2019-05-05T07:44:22.159Z,7.37
2019-05-05T07:46:43.769Z,8.83
2019-05-05T07:49:11.164Z,8.13
2019-05-05T07:51:40.938Z,7.95
2019-05-05T07:54:14.424Z,8.20
2019-05-05T07:56:44.196Z,8.23
2019-05-05T07:59:14.637Z,7.07
2019-05-05T08:01:46.834Z,8.03
2019-05-05T08:04:15.875Z,7.13
2019-05-05T08:06:45.616Z,7.45
2019-05-05T08:09:15.324Z,7.53
2019-05-05T08:11:46.001Z,7.35
2019-05-05T08:14:15.770Z,8.15
2019-05-05T08:19:51.746Z,8.55
2019-05-05T08:22:23.081Z,8.33
2019-05-05T08:25:00.484Z,8.20
2019-05-05T08:27:33.890Z,6.80
2019-05-05T08:30:10.656Z,6.90
2019-05-05T08:32:43.544Z,7.10
2019-05-05T08:35:14.731Z,7.08
2019-05-05T08:37:45.052Z,7.00
2019-05-05T08:40:14.838Z,6.58
2019-05-05T08:42:44.680Z,6.75
2019-05-05T08:45:14.447Z,6.35
2019-05-05T08:47:44.053Z,7.65
2019-05-05T08:50:13.822Z,7.37
2019-05-05T08:52:44.430Z,7.40
2019-05-05T08:55:14.413Z,7.35
2019-05-05T08:57:44.626Z,7.75
2019-05-05T09:00:14.551Z,7.42
2019-05-05T09:02:45.977Z,7.50
2019-05-05T09:05:15.610Z,7.30
2019-05-05T09:07:45.318Z,6.97
2019-05-05T09:10:15.028Z,7.35
2019-05-05T09:12:44.740Z,7.30
2019-05-05T09:15:14.346Z,7.10
2019-05-05T09:17:44.197Z,7.53
2019-05-05T09:20:13.979Z,6.45
2019-05-05T09:22:44.561Z,6.17
2019-05-05T09:25:24.831Z,6.50
2019-05-05T09:28:14.629Z,6.37
2019-05-05T09:30:45.243Z,6.55
2019-05-05T09:33:18.179Z,6.83
2019-05-05T09:35:46.403Z,6.83
2019-05-05T09:38:16.010Z,5.85
2019-05-05T09:40:45.751Z,7.12
2019-05-05T09:43:15.361Z,6.72
2019-05-05T09:45:45.072Z,6.65
2019-05-05T09:48:14.651Z,6.72
2019-05-05T09:50:45.371Z,6.03
2019-05-05T09:53:15.020Z,5.60
2019-05-05T09:55:44.701Z,6.00
2019-05-05T09:58:14.438Z,6.28
2019-05-05T10:00:45.685Z,6.40
2019-05-05T10:03:15.503Z,6.58
2019-05-05T10:05:45.801Z,6.05
2019-05-05T10:08:16.478Z,5.95
2019-05-05T10:10:47.950Z,7.37
2019-05-05T10:13:17.358Z,6.28
2019-05-05T10:15:46.997Z,5.95
2019-05-05T10:18:16.706Z,5.65
2019-05-05T10:20:46.283Z,6.10
2019-05-05T10:23:16.024Z,5.83
2019-05-05T10:25:49.803Z,5.22
2019-05-05T10:28:19.514Z,4.30
2019-05-05T10:30:50.110Z,5.03
2019-05-05T10:33:21.657Z,4.50
2019-05-05T10:35:51.334Z,4.33
2019-05-05T10:38:20.951Z,4.33
2019-05-05T10:40:53.601Z,4.62
2019-05-05T10:43:23.844Z,5.00
2019-05-05T10:45:54.659Z,5.45
2019-05-05T10:48:24.491Z,5.40
2019-05-05T10:50:54.203Z,5.75
2019-05-05T10:53:23.809Z,6.17
2019-05-05T10:55:53.998Z,6.10
2019-05-05T10:58:24.971Z,5.45
2019-05-05T11:00:56.189Z,6.60
2019-05-05T11:03:25.924Z,5.92
2019-05-05T11:05:55.535Z,6.10
2019-05-05T11:08:25.245Z,5.53
2019-05-05T11:10:54.823Z,5.47
2019-05-05T11:13:24.565Z,5.05
2019-05-05T11:15:54.713Z,5.78
2019-05-05T11:18:24.671Z,5.05
2019-05-05T11:20:54.861Z,5.10
2019-05-05T11:23:25.027Z,4.85
2019-05-05T11:25:54.957Z,4.78
2019-05-05T11:28:26.450Z,5.05
2019-05-05T11:30:55.884Z,5.58
2019-05-05T11:33:43.767Z,5.33
2019-05-05T11:36:17.962Z,5.08
2019-05-05T11:38:47.571Z,4.67
2019-05-05T11:41:17.283Z,4.40
2019-05-05T11:43:46.888Z,4.70
2019-05-05T11:46:16.607Z,4.67
2019-05-05T11:48:46.279Z,4.50
2019-05-05T11:51:16.958Z,3.95
2019-05-05T11:53:46.547Z,4.03
2019-05-05T11:56:16.258Z,4.20
2019-05-05T11:58:45.967Z,3.95
2019-05-05T12:01:15.651Z,4.10
2019-05-05T12:03:45.387Z,4.00
2019-05-05T12:06:16.054Z,3.83
2019-05-05T12:08:46.108Z,4.12
2019-05-05T12:11:16.875Z,4.00
2019-05-05T12:13:46.583Z,3.90
2019-05-05T12:16:17.799Z,3.77
2019-05-05T12:18:47.539Z,4.10
2019-05-05T12:21:17.251Z,3.62
2019-05-05T12:23:47.945Z,4.20
2019-05-05T12:26:19.233Z,3.75
2019-05-05T12:28:54.479Z,3.58
2019-05-05T12:31:24.859Z,4.10
2019-05-05T12:33:54.994Z,4.00
2019-05-05T12:36:24.726Z,4.03
2019-05-05T12:38:54.745Z,4.12
2019-05-05T12:41:24.658Z,4.10
2019-05-05T12:43:55.005Z,4.30
2019-05-05T12:46:33.739Z,4.03
2019-05-05T12:49:09.046Z,4.15
2019-05-05T12:51:38.654Z,3.67
2019-05-05T12:54:08.336Z,4.28
2019-05-05T12:56:37.944Z,3.77
2019-05-05T12:59:09.218Z,3.87
2019-05-05T13:01:40.362Z,3.98
2019-05-05T13:04:09.968Z,4.10
2019-05-05T13:06:39.651Z,4.47
2019-05-05T13:09:09.288Z,4.03
2019-05-05T13:11:39.070Z,3.90
2019-05-05T13:14:10.525Z,3.30
2019-05-05T13:16:50.623Z,3.90
2019-05-05T13:19:14.673Z,4.22
2019-05-05T13:21:48.971Z,3.60
2019-05-05T13:24:34.221Z,3.85
2019-05-05T13:27:19.407Z,4.62
2019-05-05T13:29:48.339Z,4.25
2019-05-05T13:32:19.042Z,4.42
2019-05-05T13:34:49.935Z,4.65
2019-05-05T13:37:19.690Z,4.70
2019-05-05T13:39:49.299Z,5.03
2019-05-05T13:42:19.039Z,4.20
2019-05-05T13:44:56.224Z,4.22
2019-05-05T13:47:25.833Z,4.03
2019-05-05T13:50:11.130Z,5.83
2019-05-05T13:52:40.793Z,4.90
2019-05-05T13:55:10.395Z,4.87
2019-05-05T13:57:40.135Z,4.15
2019-05-05T14:00:11.350Z,4.37
2019-05-05T14:02:41.193Z,4.50
2019-05-05T14:05:13.406Z,4.75
2019-05-05T14:07:44.247Z,4.78
2019-05-05T14:10:14.532Z,4.47
2019-05-05T14:12:44.334Z,4.90
2019-05-05T14:15:17.093Z,4.78
2019-05-05T14:17:46.725Z,4.60
2019-05-05T14:20:16.434Z,4.12
2019-05-05T14:22:46.042Z,3.35
2019-05-05T14:25:24.208Z,3.27
2019-05-05T14:27:54.169Z,3.10
2019-05-05T14:30:26.846Z,2.90
2019-05-05T14:32:57.068Z,3.20
2019-05-05T14:35:35.455Z,3.20
2019-05-05T14:38:06.728Z,2.70
2019-05-05T14:40:38.186Z,2.95
2019-05-05T14:43:07.890Z,2.80
2019-05-05T14:45:39.426Z,2.98
2019-05-05T14:48:09.050Z,2.70
2019-05-05T14:50:38.761Z,3.00
2019-05-05T14:53:08.471Z,2.80
2019-05-05T14:55:38.388Z,3.20
2019-05-05T14:58:08.072Z,3.25
2019-05-05T15:00:39.442Z,3.42
2019-05-05T15:03:09.023Z,3.20
2019-05-05T15:05:40.297Z,3.20
2019-05-05T15:08:13.433Z,3.30
2019-05-05T15:10:50.163Z,3.00
2019-05-05T15:13:24.236Z,2.90
2019-05-05T15:15:53.964Z,2.70
2019-05-05T15:18:24.236Z,2.33
2019-05-05T15:20:54.659Z,2.60
2019-05-05T15:23:24.657Z,2.60
2019-05-05T15:25:54.362Z,2.83
2019-05-05T15:28:24.613Z,2.33
2019-05-05T15:30:55.421Z,3.00
2019-05-05T15:33:25.023Z,2.83
2019-05-05T15:35:54.915Z,2.72
2019-05-05T15:38:25.576Z,2.40
2019-05-05T15:40:55.259Z,2.92
2019-05-05T15:43:24.896Z,3.02
2019-05-05T15:45:56.287Z,3.22
2019-05-05T15:48:25.923Z,2.80
2019-05-05T15:50:55.661Z,3.35
2019-05-05T15:53:25.270Z,3.08
2019-05-05T15:55:54.978Z,2.85
2019-05-05T15:58:24.690Z,2.92
2019-05-05T16:00:54.298Z,3.08
2019-05-05T16:03:25.703Z,3.00
2019-05-05T16:05:55.327Z,3.10
2019-05-05T16:08:25.072Z,2.62
2019-05-05T16:10:54.790Z,3.22
2019-05-05T16:13:26.510Z,2.98
2019-05-05T16:15:57.681Z,3.10
2019-05-05T16:18:33.200Z,3.33
2019-05-05T16:21:10.206Z,2.45
2019-05-05T16:23:44.391Z,2.10
2019-05-05T16:26:14.131Z,2.42
2019-05-05T16:28:44.716Z,2.30
2019-05-05T16:31:14.584Z,2.60
2019-05-05T16:33:44.359Z,2.00
2019-05-05T16:36:14.098Z,1.92
2019-05-05T16:38:43.827Z,2.05
2019-05-05T16:41:15.340Z,2.20
2019-05-05T16:43:44.844Z,1.80
2019-05-05T16:46:17.005Z,1.70
2019-05-05T16:48:45.928Z,2.03
2019-05-05T16:51:17.177Z,2.52
2019-05-05T16:53:46.883Z,1.77
2019-05-05T16:56:17.279Z,2.10
2019-05-05T16:58:47.020Z,2.02
2019-05-05T17:01:17.344Z,2.02
2019-05-05T17:03:47.054Z,1.80
2019-05-05T17:06:16.660Z,2.08
2019-05-05T17:08:46.264Z,1.87
2019-05-05T17:11:15.981Z,2.22
2019-05-05T17:13:49.996Z,2.27
2019-05-05T17:16:26.971Z,2.20
2019-05-05T17:19:07.230Z,2.20
2019-05-05T17:21:38.474Z,2.20
2019-05-05T17:24:08.157Z,2.10
2019-05-05T17:26:39.672Z,2.20
2019-05-05T17:29:11.062Z,2.10
2019-05-05T17:31:40.693Z,2.08
2019-05-05T17:34:10.404Z,2.45
2019-05-05T17:36:39.982Z,2.20
2019-05-05T17:39:11.420Z,2.20
2019-05-05T17:41:45.478Z,2.15
2019-05-05T17:44:33.691Z,2.12
2019-05-05T17:47:10.393Z,2.25
2019-05-05T17:49:59.967Z,2.50
2019-05-05T17:52:49.031Z,2.10
2019-05-05T17:55:33.667Z,2.55
2019-05-05T17:58:05.250Z,2.40
2019-05-05T18:00:37.678Z,2.60
2019-05-05T18:03:07.328Z,2.52
2019-05-05T18:05:56.599Z,3.12
2019-05-05T18:08:44.555Z,3.00
2019-05-05T18:11:18.646Z,3.47
2019-05-05T18:13:54.254Z,3.00
2019-05-05T18:16:26.983Z,3.30
2019-05-05T18:18:56.788Z,3.30
2019-05-05T18:21:30.341Z,3.10
2019-05-05T18:23:57.749Z,3.50
2019-05-05T18:26:27.457Z,3.47
2019-05-05T18:28:57.062Z,3.37
2019-05-05T18:31:26.773Z,3.87
2019-05-05T18:33:56.381Z,3.72
2019-05-05T18:36:26.090Z,4.20
2019-05-05T18:38:55.698Z,3.90
2019-05-05T18:41:26.945Z,4.10
2019-05-05T18:44:13.375Z,3.73
2019-05-05T18:46:43.490Z,3.30
2019-05-05T18:49:13.863Z,3.65
2019-05-05T18:51:44.032Z,3.65
2019-05-05T18:54:13.898Z,3.80
2019-05-05T18:56:44.006Z,3.33
2019-05-05T18:59:13.962Z,3.12
2019-05-05T19:01:45.207Z,3.33
2019-05-05T19:04:16.455Z,2.97
2019-05-05T19:06:47.700Z,3.80
2019-05-05T19:09:18.946Z,3.23
2019-05-05T19:11:48.554Z,3.40
2019-05-05T19:14:19.985Z,3.17
2019-05-05T19:16:49.613Z,2.90
2019-05-05T19:19:20.351Z,2.60
2019-05-05T19:21:59.323Z,2.50
2019-05-05T19:24:28.983Z,2.58
2019-05-05T19:26:58.666Z,2.40
2019-05-05T19:29:28.272Z,2.58
2019-05-05T19:31:58.011Z,2.10
2019-05-05T19:34:27.619Z,2.30
2019-05-05T19:36:57.328Z,2.40
2019-05-05T19:39:26.907Z,2.12
2019-05-05T19:41:56.666Z,2.30
2019-05-05T19:44:26.260Z,2.12
2019-05-05T19:47:00.340Z,2.40
2019-05-05T19:49:29.975Z,2.30
2019-05-05T19:51:59.656Z,2.35
2019-05-05T19:54:29.396Z,2.10
2019-05-05T19:57:00.851Z,2.37
2019-05-05T19:59:30.731Z,2.58
2019-05-05T20:02:03.545Z,2.35
2019-05-05T20:04:33.605Z,2.70
2019-05-05T20:07:04.478Z,2.37
2019-05-05T20:09:34.210Z,2.50
2019-05-05T20:12:04.147Z,2.30
2019-05-05T20:14:34.200Z,2.20
2019-05-05T20:17:06.938Z,2.33
2019-05-05T20:19:38.246Z,2.90
2019-05-05T20:22:07.851Z,2.77
2019-05-05T20:24:37.591Z,2.50
2019-05-05T20:27:07.198Z,2.90
2019-05-05T20:29:37.576Z,2.90
2019-05-05T20:32:07.338Z,2.30
2019-05-05T20:34:41.857Z,2.65
2019-05-05T20:37:15.842Z,2.90
2019-05-05T20:39:45.583Z,2.83
2019-05-05T20:42:15.186Z,3.00
2019-05-05T20:44:44.896Z,2.60
2019-05-05T20:47:14.508Z,2.42
2019-05-05T20:49:44.475Z,2.83
2019-05-05T20:52:14.266Z,2.75
2019-05-05T20:54:44.199Z,3.15
2019-05-05T20:57:13.930Z,2.85
2019-05-05T20:59:44.642Z,3.40
2019-05-05T21:02:14.403Z,3.22
2019-05-05T21:04:44.568Z,3.05
2019-05-05T21:07:15.534Z,2.80
2019-05-05T21:09:45.274Z,2.58
2019-05-05T21:12:14.984Z,2.77
2019-05-05T21:14:45.728Z,2.60
2019-05-05T21:17:15.431Z,3.00
2019-05-05T21:19:45.007Z,3.30
2019-05-05T21:22:33.888Z,3.35
2019-05-05T21:25:04.929Z,3.47
2019-05-05T21:27:34.151Z,3.50
2019-05-05T21:30:07.914Z,3.33
2019-05-05T21:32:37.652Z,3.50
2019-05-05T21:35:07.259Z,3.83
2019-05-05T21:37:36.968Z,4.03
2019-05-05T21:40:06.957Z,3.80
2019-05-05T21:42:38.449Z,2.90
2019-05-05T21:45:08.146Z,3.67
2019-05-05T21:47:37.827Z,3.40
2019-05-05T21:50:09.074Z,2.85
2019-05-05T21:52:40.349Z,3.50
2019-05-05T21:55:27.950Z,2.87
2019-05-05T21:57:59.224Z,2.60
2019-05-05T22:00:34.704Z,3.15
2019-05-05T22:03:06.294Z,2.90
2019-05-05T22:05:36.212Z,3.30
2019-05-05T22:08:06.849Z,2.90
2019-05-05T22:10:37.543Z,3.10
2019-05-05T22:13:07.215Z,3.08
2019-05-05T22:15:37.882Z,2.65
2019-05-05T22:18:08.629Z,3.02
2019-05-05T22:20:44.063Z,3.35
2019-05-05T22:23:11.176Z,3.20
2019-05-05T22:25:40.857Z,2.87
2019-05-05T22:28:11.486Z,2.62
2019-05-05T22:30:41.227Z,3.00
2019-05-05T22:33:10.835Z,2.90
2019-05-05T22:35:40.435Z,3.00
2019-05-05T22:38:10.154Z,2.92
2019-05-05T22:40:40.885Z,2.90
2019-05-05T22:43:10.494Z,3.05
2019-05-05T22:45:40.176Z,3.33
2019-05-05T22:48:09.915Z,3.30
2019-05-05T22:50:39.491Z,2.67
2019-05-05T22:53:10.261Z,3.00
2019-05-05T22:55:39.863Z,3.08
2019-05-05T22:58:09.543Z,2.92
2019-05-05T23:00:39.183Z,3.05
2019-05-05T23:03:10.427Z,3.30
2019-05-05T23:05:47.583Z,3.20
2019-05-05T23:08:18.633Z,2.87
2019-05-05T23:10:48.468Z,3.00
2019-05-05T23:13:18.151Z,3.08
2019-05-05T23:15:58.639Z,2.87
2019-05-05T23:18:29.343Z,3.20
2019-05-05T23:21:16.078Z,3.62
2019-05-05T23:23:55.941Z,3.47
2019-05-05T23:26:26.022Z,3.47
2019-05-05T23:28:55.761Z,3.40
2019-05-05T23:31:25.367Z,3.20
2019-05-05T23:33:55.048Z,3.50
2019-05-05T23:36:24.688Z,3.55
2019-05-05T23:38:54.885Z,3.60
2019-05-05T23:41:24.824Z,3.62
2019-05-05T23:43:54.649Z,3.50
2019-05-05T23:46:24.347Z,4.03
2019-05-05T23:48:54.130Z,3.47
2019-05-05T23:51:24.229Z,3.47
2019-05-05T23:53:55.262Z,3.30
2019-05-05T23:56:26.025Z,3.70
2019-05-05T23:58:55.762Z,3.30
